グアム の空港の天気 - METARとTAF

グアム国際空港 ( PGUM / GUM ) - グアム ハガニア
飛行場実況気象(Metar)
観測時間10/20 13:54 ChST (10/20 03:54 UTC)
風向・風速東南東 5m/s
視程10km以上
天気現象
なし
気温30.6℃
湿度65%
気圧1009.4hPa
METARPGUM 200354Z 11009KT 10SM CLR 31/23 A2983 RMK AO2 SLP094 T03060233
過去の天気等 Google飛行場航空写真 Wunderground天気予報

過去48時間のMETAR

飛行場予報(TAF)
発表時間: 10/20 09:20 ChST (10/19 23:20 UTC)
予報対象時間: 20日10時 ChST ~ 21日16時 ChST
風向・風速東 6m/s
視程10km以上
天気現象周辺でしゅう雨
全天の4割程度の雲 雲底高度 670m
PGUM 192320Z 2000/2106 10011KT P6SM VCSH SCT022